Terminal Aerodrome Forecast
Issued by NWS Spokane, WA

Home | Current Version | Previous Version | Text Only | Print | Product List | Glossary On
Versions: 1 2 3 4 5 6 7 8 9 10 11 12 13 14 15 16 17 18
000
FTUS46 KOTX 220534
TAFLWS
TAF
KLWS 220534Z 2206/2306 18017G29KT P6SM -RA OVC060
     FM220800 21015G24KT P6SM -SHRA OVC050 WS020/23050KT
     FM221700 23017G35KT P6SM VCSH BKN050 OVC200
     FM221900 24020G30KT P6SM FEW040
     FM230200 25005KT P6SM SKC=

USA.gov is the U.S. government's official web portal to all federal, state and local government web resources and services.